createdAt,value
2023-03-04T00:00:36.455Z,0.02
2023-03-04T00:03:05.025Z,-0.19
2023-03-04T00:05:33.493Z,-0.43
2023-03-04T00:08:02.146Z,-0.47
2023-03-04T00:10:32.369Z,-0.12
2023-03-04T00:13:02.622Z,0.14
2023-03-04T00:15:31.480Z,0.18
2023-03-04T00:18:03.451Z,0.06
2023-03-04T00:20:32.028Z,-0.14
2023-03-04T00:23:00.812Z,-0.25
2023-03-04T00:25:29.293Z,-0.36
2023-03-04T00:27:58.823Z,-0.45
2023-03-04T00:30:34.363Z,-0.03
2023-03-04T00:33:04.162Z,0.13
2023-03-04T00:35:32.798Z,0.09
2023-03-04T00:38:01.226Z,-0.07
2023-03-04T00:40:30.212Z,-0.22
2023-03-04T00:43:00.674Z,-0.37
2023-03-04T00:45:29.329Z,-0.39
2023-03-04T00:47:59.752Z,0.07
2023-03-04T00:50:29.182Z,0.26
2023-03-04T00:52:57.757Z,0.26
2023-03-04T00:55:26.216Z,0.07
2023-03-04T00:57:55.024Z,-0.12
2023-03-04T01:00:23.832Z,-0.21
2023-03-04T01:02:52.884Z,-0.22
2023-03-04T01:05:22.327Z,0.13
2023-03-04T01:07:50.977Z,0.33
2023-03-04T01:10:25.708Z,0.18
2023-03-04T01:12:54.719Z,0.05
2023-03-04T01:15:23.990Z,-0.06
2023-03-04T01:17:55.107Z,-0.25
2023-03-04T01:20:23.723Z,-0.36
2023-03-04T01:22:52.329Z,0.03
2023-03-04T01:25:21.599Z,0.22
2023-03-04T01:27:50.000Z,0.27
2023-03-04T01:30:22.347Z,0.05
2023-03-04T01:32:51.239Z,-0.10
2023-03-04T01:35:21.855Z,-0.29
2023-03-04T01:37:50.676Z,-0.30
2023-03-04T01:40:19.247Z,0.14
2023-03-04T01:42:48.669Z,0.52
2023-03-04T01:45:18.664Z,0.43
2023-03-04T01:47:49.276Z,0.34
2023-03-04T01:50:30.167Z,0.12
2023-03-04T01:53:01.235Z,-0.05
2023-03-04T01:55:30.611Z,-0.15
2023-03-04T01:57:59.001Z,0.04
2023-03-04T02:00:27.480Z,0.45
2023-03-04T02:03:19.896Z,0.57
2023-03-04T02:05:49.944Z,0.48
2023-03-04T02:08:20.457Z,0.26
2023-03-04T02:10:52.226Z,0.14
2023-03-04T02:13:22.752Z,-0.00
2023-03-04T02:15:51.260Z,-0.10
2023-03-04T02:18:21.951Z,0.13
2023-03-04T02:21:14.914Z,0.59
2023-03-04T02:23:47.300Z,0.69
2023-03-04T02:26:18.018Z,0.61
2023-03-04T02:28:48.766Z,0.43
2023-03-04T02:31:36.863Z,0.26
2023-03-04T02:34:13.268Z,0.14
2023-03-04T02:36:42.764Z,0.01
2023-03-04T02:39:21.184Z,-0.05
2023-03-04T02:41:51.666Z,0.49
2023-03-04T02:44:24.057Z,0.96
2023-03-04T02:46:53.452Z,0.99
2023-03-04T02:49:23.086Z,0.86
2023-03-04T02:52:00.270Z,0.60
2023-03-04T02:54:28.673Z,0.35
2023-03-04T03:04:42.863Z,0.44
2023-03-04T03:07:14.506Z,0.55
2023-03-04T03:09:50.149Z,0.37
2023-03-04T03:12:19.918Z,0.22
2023-03-04T03:14:48.356Z,0.01
2023-03-04T03:17:19.289Z,-0.17
2023-03-04T03:19:48.791Z,-0.29
2023-03-04T03:22:17.693Z,-0.37
2023-03-04T03:24:47.084Z,0.03
2023-03-04T03:27:15.555Z,0.47
2023-03-04T03:29:46.608Z,0.55
2023-03-04T03:32:15.214Z,0.39
2023-03-04T03:34:45.272Z,0.25
2023-03-04T03:37:14.399Z,0.06
2023-03-04T03:39:43.188Z,-0.05
2023-03-04T03:42:11.968Z,-0.14
2023-03-04T03:44:40.548Z,-0.22
2023-03-04T03:47:09.028Z,-0.25
2023-03-04T03:49:37.534Z,0.40
2023-03-04T03:52:08.470Z,0.99
2023-03-04T03:54:37.761Z,1.10
2023-03-04T03:57:06.783Z,0.90
2023-03-04T03:59:36.974Z,0.65
2023-03-04T04:02:05.841Z,0.44
2023-03-04T04:04:34.560Z,0.27
2023-03-04T04:07:03.845Z,0.11
2023-03-04T04:09:34.686Z,-0.09
2023-03-04T04:12:05.906Z,0.09
2023-03-04T04:14:42.139Z,0.78
2023-03-04T04:17:11.288Z,0.92
2023-03-04T04:19:40.869Z,0.78
2023-03-04T04:22:15.827Z,0.64
2023-03-04T04:24:44.716Z,0.42
2023-03-04T04:27:14.019Z,0.14
2023-03-04T04:29:42.999Z,-0.03
2023-03-04T04:32:13.400Z,-0.18
2023-03-04T04:34:44.779Z,0.11
2023-03-04T04:37:13.892Z,0.64
2023-03-04T04:39:43.407Z,0.74
2023-03-04T04:42:12.370Z,0.57
2023-03-04T04:44:42.200Z,0.42
2023-03-04T04:47:10.662Z,0.23
2023-03-04T04:49:39.240Z,0.03
2023-03-04T04:52:07.555Z,-0.16
2023-03-04T04:54:35.999Z,-0.32
2023-03-04T04:57:04.476Z,-0.42
2023-03-04T04:59:34.186Z,0.08
2023-03-04T05:02:05.437Z,0.44
2023-03-04T05:04:33.951Z,0.45
2023-03-04T05:07:02.711Z,0.29
2023-03-04T05:09:31.911Z,0.11
2023-03-04T05:12:00.512Z,-0.07
2023-03-04T05:14:36.249Z,-0.21
2023-03-04T05:17:05.123Z,-0.34
2023-03-04T05:19:33.505Z,-0.35
2023-03-04T05:22:05.686Z,0.20
2023-03-04T05:24:35.191Z,0.45
2023-03-04T05:27:03.759Z,0.35
2023-03-04T05:29:32.661Z,0.13
2023-03-04T05:32:01.187Z,-0.09
2023-03-04T05:34:30.123Z,-0.30
2023-03-04T05:36:58.808Z,-0.40
2023-03-04T05:39:29.852Z,-0.50
2023-03-04T05:41:58.270Z,-0.26
2023-03-04T05:44:30.196Z,0.23
2023-03-04T05:46:58.878Z,0.31
2023-03-04T05:49:27.874Z,0.20
2023-03-04T05:51:56.771Z,-0.04
2023-03-04T05:54:25.346Z,-0.19
2023-03-04T05:56:54.975Z,-0.32
2023-03-04T05:59:23.776Z,-0.40
2023-03-04T06:01:52.308Z,-0.53
2023-03-04T06:04:20.720Z,-0.10
2023-03-04T06:06:53.895Z,0.30
2023-03-04T06:09:22.579Z,0.35
2023-03-04T06:11:51.182Z,0.20
2023-03-04T06:14:25.842Z,-0.01
2023-03-04T06:16:55.187Z,-0.08
2023-03-04T06:19:23.802Z,-0.16
2023-03-04T06:21:52.382Z,-0.24
2023-03-04T06:24:21.141Z,-0.26
2023-03-04T06:26:49.740Z,0.19
2023-03-04T06:29:19.020Z,0.75
2023-03-04T06:31:47.653Z,0.93
2023-03-04T06:34:19.801Z,0.87
2023-03-04T06:36:48.457Z,0.66
2023-03-04T06:39:18.778Z,0.55
2023-03-04T06:41:47.568Z,0.49
2023-03-04T06:44:16.260Z,0.45
2023-03-04T06:46:45.589Z,0.36
2023-03-04T06:49:14.253Z,0.40
2023-03-04T06:51:43.364Z,0.43
2023-03-04T06:54:11.853Z,0.57
2023-03-04T06:56:40.400Z,1.20
2023-03-04T06:59:09.081Z,1.69
2023-03-04T07:01:38.383Z,1.61
2023-03-04T07:04:07.064Z,1.38
2023-03-04T07:06:35.551Z,1.25
2023-03-04T07:09:04.043Z,1.19
2023-03-04T07:11:33.229Z,1.15
2023-03-04T07:14:02.218Z,0.96
2023-03-04T07:16:30.757Z,0.81
2023-03-04T07:18:59.391Z,0.74
2023-03-04T07:21:34.082Z,0.75
2023-03-04T07:24:02.608Z,0.75
2023-03-04T07:26:31.407Z,0.78
2023-03-04T07:29:00.936Z,0.66
2023-03-04T07:31:31.455Z,0.56
2023-03-04T07:34:01.637Z,0.52
2023-03-04T07:36:31.813Z,0.42
2023-03-04T07:39:02.401Z,0.79
2023-03-04T07:41:32.096Z,0.99
2023-03-04T07:44:00.328Z,0.92
2023-03-04T07:46:28.932Z,0.76
2023-03-04T07:48:57.958Z,0.58
2023-03-04T07:51:33.296Z,0.60
2023-03-04T07:54:02.300Z,0.44
2023-03-04T07:56:32.707Z,0.36
2023-03-04T07:59:01.608Z,0.28
2023-03-04T08:01:32.245Z,0.19
2023-03-04T08:04:00.661Z,0.21
2023-03-04T08:06:30.124Z,0.12
2023-03-04T08:09:04.261Z,0.57
2023-03-04T08:11:33.532Z,0.70
2023-03-04T08:14:02.115Z,0.50
2023-03-04T08:16:35.407Z,0.37
2023-03-04T08:19:05.132Z,0.23
2023-03-04T08:21:33.555Z,0.08
2023-03-04T08:24:08.539Z,-0.06
2023-03-04T08:26:42.340Z,-0.12
2023-03-04T08:29:16.308Z,-0.04
2023-03-04T08:31:48.709Z,0.23
2023-03-04T08:34:18.520Z,0.29
2023-03-04T08:36:52.249Z,0.04
2023-03-04T08:39:21.218Z,-0.04
2023-03-04T08:41:49.695Z,-0.30
2023-03-04T08:44:18.520Z,-0.40
2023-03-04T08:46:47.179Z,-0.48
2023-03-04T08:49:18.835Z,-0.11
2023-03-04T08:51:47.426Z,0.15
2023-03-04T08:54:16.094Z,0.04
2023-03-04T08:56:44.682Z,-0.11
2023-03-04T08:59:13.572Z,-0.21
2023-03-04T09:01:42.226Z,-0.40
2023-03-04T09:04:11.452Z,-0.49
2023-03-04T09:06:41.057Z,-0.21
2023-03-04T09:09:09.745Z,0.18
2023-03-04T09:11:41.915Z,0.19
2023-03-04T09:14:11.317Z,0.08
2023-03-04T09:16:40.416Z,-0.16
2023-03-04T09:19:08.918Z,-0.28
2023-03-04T09:21:40.747Z,-0.34
2023-03-04T09:24:09.232Z,-0.38
2023-03-04T09:26:37.841Z,-0.11
2023-03-04T09:29:07.423Z,0.05
2023-03-04T09:31:36.053Z,0.08
2023-03-04T09:34:06.679Z,-0.01
2023-03-04T09:36:35.967Z,-0.09
2023-03-04T09:39:07.593Z,-0.13
2023-03-04T09:41:44.988Z,-0.30
2023-03-04T09:44:16.042Z,-0.41
2023-03-04T09:46:45.418Z,-0.21
2023-03-04T09:49:14.213Z,-0.06
2023-03-04T09:52:35.433Z,0.01
2023-03-04T09:55:16.009Z,-0.28
2023-03-04T09:57:56.349Z,-0.39
2023-03-04T10:00:44.665Z,-0.48
2023-03-04T10:03:22.664Z,-0.55
2023-03-04T10:05:54.477Z,-0.56
2023-03-04T10:08:32.382Z,-0.26
2023-03-04T10:11:01.326Z,-0.13
2023-03-04T10:13:40.800Z,-0.16
2023-03-04T10:16:09.952Z,-0.28
2023-03-04T10:18:41.335Z,-0.36
2023-03-04T10:21:36.129Z,-0.37
2023-03-04T10:24:26.006Z,-0.46
2023-03-04T10:27:05.010Z,-0.40
2023-03-04T10:29:33.456Z,-0.09
2023-03-04T10:32:02.555Z,-0.13
2023-03-04T10:34:31.915Z,-0.29
2023-03-04T10:37:02.791Z,-0.36
2023-03-04T10:39:49.995Z,-0.48
2023-03-04T10:42:19.850Z,-0.64
2023-03-04T10:44:54.128Z,-0.46
2023-03-04T10:47:30.114Z,0.03
2023-03-04T10:50:01.107Z,-0.09
2023-03-04T10:52:52.909Z,-0.22
2023-03-04T10:55:30.033Z,-0.49
2023-03-04T10:58:05.715Z,-0.59
2023-03-04T11:00:35.150Z,-0.75
2023-03-04T11:03:24.207Z,-0.73
2023-03-04T11:06:03.960Z,-0.69
2023-03-04T11:08:34.782Z,-0.32
2023-03-04T11:11:03.365Z,-0.22
2023-03-04T11:13:31.968Z,-0.15
2023-03-04T11:16:22.269Z,-0.28
2023-03-04T11:18:55.893Z,-0.25
2023-03-04T11:21:25.975Z,-0.25
2023-03-04T11:24:01.801Z,-0.23
2023-03-04T11:26:47.959Z,0.17
2023-03-04T11:29:17.616Z,0.53
2023-03-04T11:31:56.115Z,0.70
2023-03-04T11:34:33.164Z,0.61
2023-03-04T11:37:10.675Z,0.47
2023-03-04T11:39:44.531Z,0.42
2023-03-04T11:42:16.488Z,0.38
2023-03-04T11:44:45.429Z,0.39
2023-03-04T11:47:27.485Z,0.24
2023-03-04T11:50:39.441Z,0.11
2023-03-04T11:53:30.925Z,0.24
2023-03-04T11:56:11.573Z,0.72
2023-03-04T11:58:52.241Z,0.88
2023-03-04T12:01:39.567Z,0.76
2023-03-04T12:04:18.196Z,0.68
2023-03-04T12:06:50.774Z,0.49
2023-03-04T12:09:30.202Z,0.45
2023-03-04T12:12:30.113Z,0.35
2023-03-04T12:15:16.924Z,0.25
2023-03-04T12:17:52.354Z,0.20
2023-03-04T12:21:08.464Z,0.13
2023-03-04T12:24:02.245Z,0.21
2023-03-04T12:26:33.999Z,0.79
2023-03-04T12:29:04.662Z,0.97
2023-03-04T12:31:43.283Z,1.00
2023-03-04T12:34:33.029Z,0.87
2023-03-04T12:37:41.459Z,0.58
2023-03-04T12:40:21.125Z,0.59
2023-03-04T12:43:02.872Z,0.52
2023-03-04T12:45:47.999Z,0.46
2023-03-04T12:48:35.939Z,0.51
2023-03-04T12:51:20.129Z,0.42
2023-03-04T12:54:03.986Z,0.41
2023-03-04T12:56:50.815Z,0.79
2023-03-04T12:59:24.390Z,1.16
2023-03-04T13:01:57.264Z,1.15
2023-03-04T13:04:57.283Z,1.01
2023-03-04T13:07:37.598Z,0.96
2023-03-04T13:10:14.216Z,0.90
2023-03-04T13:12:49.364Z,0.84
2023-03-04T13:15:22.076Z,0.93
2023-03-04T13:17:52.530Z,0.87
2023-03-04T13:20:21.100Z,0.83
2023-03-04T13:22:59.561Z,0.72
2023-03-04T13:25:32.181Z,0.68
2023-03-04T13:28:03.088Z,0.62
2023-03-04T13:30:31.664Z,0.65
2023-03-04T13:33:04.992Z,1.18
2023-03-04T13:35:49.758Z,1.60
2023-03-04T13:38:28.017Z,1.50
2023-03-04T13:41:25.373Z,1.34
2023-03-04T13:44:03.979Z,1.21
2023-03-04T13:46:42.985Z,0.97
2023-03-04T13:49:24.702Z,0.86
2023-03-04T13:51:53.026Z,0.69
2023-03-04T13:54:27.748Z,0.61
2023-03-04T13:57:02.240Z,0.59
2023-03-04T13:59:34.775Z,0.53
2023-03-04T14:02:15.462Z,0.48
2023-03-04T14:04:45.361Z,0.96
2023-03-04T14:07:40.703Z,1.32
2023-03-04T14:10:12.380Z,1.43
2023-03-04T14:12:44.954Z,1.29
2023-03-04T14:15:13.542Z,1.20
2023-03-04T14:17:48.475Z,1.05
2023-03-04T14:20:33.940Z,0.96
2023-03-04T14:23:23.004Z,0.75
2023-03-04T14:25:51.682Z,0.65
2023-03-04T14:28:20.909Z,0.62
2023-03-04T14:30:53.204Z,0.55
2023-03-04T14:33:26.783Z,0.50
2023-03-04T14:35:58.892Z,0.85
2023-03-04T14:38:28.034Z,1.26
2023-03-04T14:41:05.909Z,1.32
2023-03-04T14:43:43.590Z,1.08
2023-03-04T14:46:15.929Z,0.92
2023-03-04T14:48:53.623Z,0.74
2023-03-04T14:51:41.934Z,0.62
2023-03-04T14:54:35.357Z,0.47
2023-03-04T14:57:24.138Z,0.39
2023-03-04T14:59:54.180Z,0.33
2023-03-04T15:02:50.293Z,0.72
2023-03-04T15:05:30.353Z,1.18
2023-03-04T15:08:05.584Z,1.15
2023-03-04T15:10:36.266Z,1.03
2023-03-04T15:13:09.019Z,0.82
2023-03-04T15:15:45.567Z,0.65
2023-03-04T15:18:16.915Z,0.54
2023-03-04T15:21:05.052Z,0.44
2023-03-04T15:23:34.047Z,0.34
2023-03-04T15:26:04.511Z,0.54
2023-03-04T15:28:37.274Z,0.91
2023-03-04T15:31:06.487Z,1.01
2023-03-04T15:33:35.544Z,0.83
2023-03-04T15:36:04.440Z,0.72
2023-03-04T15:38:33.631Z,0.52
2023-03-04T15:41:03.192Z,0.39
2023-03-04T15:43:34.490Z,0.27
2023-03-04T15:46:03.638Z,0.14
2023-03-04T16:15:45.271Z,-0.30
2023-03-04T16:18:14.755Z,0.21
2023-03-04T16:20:45.956Z,0.58
2023-03-04T16:23:17.052Z,0.58
2023-03-04T16:25:47.143Z,0.46
2023-03-04T16:28:16.772Z,0.31
2023-03-04T16:30:45.492Z,0.19
2023-03-04T16:33:15.961Z,0.10
2023-03-04T16:35:46.948Z,0.05
2023-03-04T16:38:27.337Z,0.43
2023-03-04T16:41:02.212Z,0.73
2023-03-04T16:43:30.771Z,0.66
2023-03-04T16:45:59.303Z,0.57
2023-03-04T16:48:28.795Z,0.44
2023-03-04T16:50:59.488Z,0.32
2023-03-04T16:53:36.232Z,0.22
2023-03-04T16:56:14.275Z,0.15
2023-03-04T16:58:44.277Z,0.30
2023-03-04T17:01:19.621Z,0.83
2023-03-04T17:03:48.000Z,0.99
2023-03-04T17:06:16.583Z,0.85
2023-03-04T17:08:45.094Z,0.68
2023-03-04T17:11:21.334Z,0.55
2023-03-04T17:13:52.782Z,0.42
2023-03-04T17:16:21.629Z,0.27
2023-03-04T17:18:50.774Z,0.18
2023-03-04T17:21:21.385Z,0.09
2023-03-04T17:23:50.185Z,0.45
2023-03-04T17:26:22.748Z,0.86
2023-03-04T17:28:51.770Z,0.85
2023-03-04T17:31:20.632Z,0.73
2023-03-04T17:33:49.948Z,0.62
2023-03-04T17:36:19.044Z,0.44
2023-03-04T17:38:49.680Z,0.32
2023-03-04T17:41:19.066Z,0.22
2023-03-04T17:43:51.231Z,0.17
2023-03-04T17:46:21.859Z,0.45
2023-03-04T17:48:51.978Z,0.84
2023-03-04T17:51:20.680Z,0.95
2023-03-04T17:53:49.356Z,0.80
2023-03-04T17:56:18.159Z,0.70
2023-03-04T17:58:48.265Z,0.54
2023-03-04T18:01:20.306Z,0.40
2023-03-04T18:03:50.472Z,0.28
2023-03-04T18:06:19.134Z,0.22
2023-03-04T18:08:49.587Z,0.45
2023-03-04T18:11:19.986Z,0.96
2023-03-04T18:13:48.469Z,1.11
2023-03-04T18:16:23.578Z,0.99
2023-03-04T18:18:53.416Z,0.82
2023-03-04T18:21:26.620Z,0.70
2023-03-04T18:23:55.404Z,0.57
2023-03-04T18:26:24.586Z,0.43
2023-03-04T18:28:54.201Z,0.31
2023-03-04T18:31:23.944Z,0.58
2023-03-04T18:33:53.868Z,1.07
2023-03-04T18:36:22.306Z,1.22
2023-03-04T18:38:50.784Z,1.08
2023-03-04T18:41:19.232Z,0.82
2023-03-04T18:43:47.849Z,0.73
2023-03-04T18:46:50.843Z,0.62
2023-03-04T18:49:20.195Z,0.48
2023-03-04T18:51:48.722Z,0.54
2023-03-04T18:54:17.204Z,0.95
2023-03-04T18:56:51.419Z,1.03
2023-03-04T18:59:31.534Z,0.96
2023-03-04T19:02:03.548Z,0.79
2023-03-04T19:04:32.119Z,0.62
2023-03-04T19:07:04.539Z,0.47
2023-03-04T19:09:34.617Z,0.74
2023-03-04T19:12:03.292Z,0.88
2023-03-04T19:14:34.458Z,0.75
2023-03-04T19:17:03.956Z,0.59
2023-03-04T19:19:33.245Z,0.41
2023-03-04T19:22:01.657Z,0.36
2023-03-04T19:24:30.538Z,0.66
2023-03-04T19:26:58.997Z,0.99
2023-03-04T19:29:28.738Z,0.99
2023-03-04T19:31:57.689Z,0.80
2023-03-04T19:34:26.087Z,0.57
2023-03-04T19:36:54.500Z,0.37
2023-03-04T19:39:24.374Z,0.58
2023-03-04T19:41:52.959Z,0.66
2023-03-04T19:44:24.603Z,0.50
2023-03-04T19:46:52.988Z,0.19
2023-03-04T19:49:24.530Z,0.01
2023-03-04T19:51:53.137Z,0.25
2023-03-04T19:54:21.802Z,0.30
2023-03-04T19:56:50.281Z,-0.03
2023-03-04T19:59:18.873Z,-0.25
2023-03-04T20:01:47.556Z,-0.70
2023-03-04T20:04:17.951Z,-1.83
2023-03-04T20:06:47.586Z,-2.53
2023-03-04T20:09:17.730Z,-2.99
2023-03-04T20:11:57.774Z,-2.98
2023-03-04T20:14:28.181Z,-3.16
2023-03-04T20:17:03.241Z,-3.14
2023-03-04T20:19:32.108Z,-2.97
2023-03-04T20:22:01.091Z,-2.74
2023-03-04T20:24:29.595Z,-2.73
2023-03-04T20:27:02.253Z,-2.72
2023-03-04T20:29:30.557Z,-2.88
2023-03-04T20:32:01.846Z,-3.07
2023-03-04T20:34:30.561Z,-3.23
2023-03-04T20:37:00.243Z,-2.97
2023-03-04T20:39:30.063Z,-2.69
2023-03-04T20:41:59.233Z,-2.69
2023-03-04T20:44:31.858Z,-2.70
2023-03-04T20:47:00.982Z,-2.80
2023-03-04T20:49:29.849Z,-2.93
2023-03-04T20:52:03.467Z,-2.94
2023-03-04T20:54:33.389Z,-2.47
2023-03-04T20:57:01.837Z,-2.28
2023-03-04T20:59:31.339Z,-2.36
2023-03-04T21:02:06.762Z,-2.42
2023-03-04T21:04:36.217Z,-2.54
2023-03-04T21:07:04.678Z,-2.70
2023-03-04T21:09:33.043Z,-2.76
2023-03-04T21:12:01.879Z,-2.44
2023-03-04T21:14:32.811Z,-2.12
2023-03-04T21:17:03.548Z,-2.01
2023-03-04T21:19:33.872Z,-2.10
2023-03-04T21:22:02.523Z,-2.21
2023-03-04T21:24:32.681Z,-2.29
2023-03-04T21:27:01.858Z,-2.43
2023-03-04T21:29:30.630Z,-2.52
2023-03-04T21:32:24.656Z,-2.50
2023-03-04T21:34:54.347Z,-1.96
2023-03-04T21:37:24.070Z,-1.90
2023-03-04T21:39:55.337Z,-2.01
2023-03-04T21:42:24.488Z,-2.14
2023-03-04T21:44:58.996Z,-2.40
2023-03-04T21:47:27.716Z,-2.55
2023-03-04T21:49:56.591Z,-2.57
2023-03-04T21:52:25.705Z,-2.64
2023-03-04T21:54:56.315Z,-2.70
2023-03-04T21:57:27.564Z,-2.34
2023-03-04T21:59:57.177Z,-2.00
2023-03-04T22:02:25.729Z,-1.93
2023-03-04T22:04:55.460Z,-2.21
2023-03-04T22:07:24.050Z,-2.45
2023-03-04T22:09:54.603Z,-2.48
2023-03-04T22:12:23.364Z,-2.59
2023-03-04T22:14:52.357Z,-2.71
2023-03-04T22:17:20.711Z,-2.79
2023-03-04T22:19:49.325Z,-2.79
2023-03-04T22:22:20.568Z,-2.38
2023-03-04T22:24:49.268Z,-2.09
2023-03-04T22:27:18.152Z,-2.14
2023-03-04T22:29:46.735Z,-2.29
2023-03-04T22:32:17.237Z,-2.38
2023-03-04T22:34:46.776Z,-2.56
2023-03-04T22:37:15.316Z,-2.61
2023-03-04T22:39:43.733Z,-2.73
2023-03-04T22:42:12.619Z,-2.78
2023-03-04T22:44:41.236Z,-2.19
2023-03-04T22:47:09.793Z,-1.98
2023-03-04T22:49:41.329Z,-2.14
2023-03-04T22:52:15.487Z,-2.37
2023-03-04T22:54:44.544Z,-2.51
2023-03-04T22:57:13.017Z,-2.68
2023-03-04T22:59:41.527Z,-2.78
2023-03-04T23:02:10.118Z,-2.94
2023-03-04T23:04:38.766Z,-3.14
2023-03-04T23:07:07.486Z,-3.26
2023-03-04T23:09:37.563Z,-3.35
2023-03-04T23:12:06.582Z,-3.44
2023-03-04T23:14:35.084Z,-3.59
2023-03-04T23:17:04.337Z,-3.69
2023-03-04T23:19:33.742Z,-3.72
2023-03-04T23:22:03.398Z,-3.80
2023-03-04T23:24:32.145Z,-3.88
2023-03-04T23:27:00.556Z,-3.96
2023-03-04T23:29:29.208Z,-4.06
2023-03-04T23:31:57.696Z,-4.12
2023-03-04T23:34:26.721Z,-4.17
2023-03-04T23:36:55.560Z,-4.29
2023-03-04T23:39:24.043Z,-4.32
2023-03-04T23:41:52.647Z,-4.39
2023-03-04T23:44:21.214Z,-4.41
2023-03-04T23:46:50.618Z,-4.51
2023-03-04T23:49:19.009Z,-4.50
2023-03-04T23:51:47.472Z,-4.50
2023-03-04T23:54:16.614Z,-4.51
2023-03-04T23:56:45.271Z,-4.57
2023-03-04T23:59:14.753Z,-4.60
